Time;durP1;ratioP1;P1;durP2;ratioP2;P2;SDS_P1;SDS_P2;PMS_P1;PMS_P2;Temp;Humidity;BMP_temperature;BMP_pressure;BME280_temperature;BME280_humidity;BME280_pressure;Samples;Min_cycle;Max_cycle;Signal;HPM_P1;HPM_P2
2021/04/28 00:00:41;;;;;;;4.20;2.60;;;;;;;;;;5086926;28;20172;-64
2021/04/28 00:03:10;;;;;;;3.07;2.63;;;;;;;;;;5088778;28;20245;-65
2021/04/28 00:05:36;;;;;;;3.80;2.40;;;;;;;;;;5087172;28;20256;-64
2021/04/28 00:08:03;;;;;;;3.50;2.70;;;;;;;;;;5059799;28;20198;-64
2021/04/28 00:10:31;;;;;;;2.63;2.43;;;;;;;;;;5085396;28;20221;-64
2021/04/28 00:12:57;;;;;;;4.03;3.03;;;;;;;;;;5070508;28;20215;-64
2021/04/28 00:15:25;;;;;;;4.23;2.97;;;;;;;;;;5073571;28;20199;-64
2021/04/28 00:17:52;;;;;;;3.00;2.70;;;;;;;;;;5064296;28;20193;-64
2021/04/28 00:20:18;;;;;;;2.73;2.47;;;;;;;;;;5088168;28;20209;-64
2021/04/28 00:22:44;;;;;;;4.07;2.93;;;;;;;;;;5055636;28;20195;-64
2021/04/28 00:25:11;;;;;;;4.50;2.83;;;;;;;;;;5087937;28;20179;-64
2021/04/28 00:27:37;;;;;;;4.00;2.85;;;;;;;;;;5085632;28;20420;-64
2021/04/28 00:30:05;;;;;;;2.93;2.63;;;;;;;;;;5062081;28;20192;-64
2021/04/28 00:32:31;;;;;;;3.27;2.70;;;;;;;;;;5087719;28;20188;-64
2021/04/28 00:34:57;;;;;;;3.80;2.67;;;;;;;;;;5068193;28;573904;-63
2021/04/28 00:37:23;;;;;;;4.03;2.73;;;;;;;;;;5072937;28;20215;-66
2021/04/28 00:39:49;;;;;;;3.40;3.10;;;;;;;;;;5067935;28;20171;-64
2021/04/28 00:42:16;;;;;;;3.23;2.93;;;;;;;;;;5062818;28;20180;-64
2021/04/28 00:44:42;;;;;;;3.37;3.00;;;;;;;;;;5089555;28;20190;-65
2021/04/28 00:47:08;;;;;;;3.00;2.70;;;;;;;;;;5069908;28;20187;-63
2021/04/28 00:49:34;;;;;;;3.00;2.50;;;;;;;;;;5070043;28;20192;-64
2021/04/28 00:52:00;;;;;;;4.73;3.07;;;;;;;;;;5086997;28;20642;-63
2021/04/28 00:54:26;;;;;;;3.17;2.80;;;;;;;;;;5084335;28;20627;-64
2021/04/28 00:56:54;;;;;;;5.13;3.10;;;;;;;;;;5065395;28;20250;-64
2021/04/28 00:59:20;;;;;;;3.20;2.73;;;;;;;;;;5087360;28;20650;-66
2021/04/28 01:01:46;;;;;;;5.30;3.50;;;;;;;;;;5087590;28;20522;-64
2021/04/28 01:04:12;;;;;;;3.83;3.03;;;;;;;;;;5085366;28;20184;-64
2021/04/28 01:06:38;;;;;;;3.23;2.93;;;;;;;;;;5078677;28;20196;-66
2021/04/28 01:09:05;;;;;;;3.60;2.80;;;;;;;;;;5062730;28;20180;-64
2021/04/28 01:11:31;;;;;;;4.67;2.90;;;;;;;;;;5079209;28;20185;-63
2021/04/28 01:13:57;;;;;;;4.63;2.90;;;;;;;;;;5089215;28;20203;-66
2021/04/28 01:16:24;;;;;;;4.10;2.97;;;;;;;;;;5072005;28;20306;-66
2021/04/28 01:18:54;;;;;;;4.33;2.57;;;;;;;;;;5067903;28;20172;-63
2021/04/28 01:21:20;;;;;;;3.57;2.77;;;;;;;;;;5086709;28;20168;-64
2021/04/28 01:23:46;;;;;;;3.90;3.00;;;;;;;;;;5087426;28;20187;-63
2021/04/28 01:26:12;;;;;;;3.80;2.90;;;;;;;;;;5079050;28;20649;-66
2021/04/28 01:28:39;;;;;;;5.23;3.00;;;;;;;;;;5089371;28;20221;-64
2021/04/28 01:31:07;;;;;;;2.67;2.40;;;;;;;;;;5079108;28;20513;-64
2021/04/28 01:33:35;;;;;;;3.57;2.73;;;;;;;;;;5088850;28;20808;-66
2021/04/28 01:36:03;;;;;;;3.20;2.90;;;;;;;;;;5086635;28;20316;-61
2021/04/28 01:38:30;;;;;;;2.90;2.70;;;;;;;;;;5067143;28;20183;-62
2021/04/28 01:40:57;;;;;;;3.03;2.73;;;;;;;;;;5079980;28;20650;-63
2021/04/28 01:43:23;;;;;;;3.87;2.90;;;;;;;;;;5075064;28;20183;-64
2021/04/28 01:45:50;;;;;;;3.10;2.67;;;;;;;;;;5082491;28;20226;-64
2021/04/28 01:48:17;;;;;;;3.27;2.73;;;;;;;;;;5092131;28;20172;-64
2021/04/28 01:50:43;;;;;;;3.47;2.90;;;;;;;;;;5088486;28;20204;-64
2021/04/28 01:53:10;;;;;;;2.97;2.67;;;;;;;;;;5078526;28;20675;-65
2021/04/28 01:55:36;;;;;;;2.83;2.50;;;;;;;;;;5086538;28;20169;-63
2021/04/28 01:58:03;;;;;;;2.90;2.57;;;;;;;;;;5067993;28;20191;-63
2021/04/28 02:00:30;;;;;;;4.37;2.90;;;;;;;;;;5059430;28;20761;-63
2021/04/28 02:02:56;;;;;;;5.03;3.00;;;;;;;;;;5086534;28;20191;-63
2021/04/28 02:05:22;;;;;;;2.83;2.53;;;;;;;;;;5089182;28;20655;-63
2021/04/28 02:07:49;;;;;;;4.00;3.17;;;;;;;;;;5089305;28;20191;-63
2021/04/28 02:10:15;;;;;;;4.23;3.60;;;;;;;;;;5087517;28;20653;-63
2021/04/28 02:12:42;;;;;;;3.20;2.90;;;;;;;;;;5073276;28;20553;-63
2021/04/28 02:15:09;;;;;;;3.40;2.70;;;;;;;;;;5091552;28;20533;-64
2021/04/28 02:17:37;;;;;;;3.67;2.80;;;;;;;;;;5090330;28;20425;-63
2021/04/28 02:20:04;;;;;;;2.90;2.60;;;;;;;;;;5086756;28;20608;-64
2021/04/28 02:22:31;;;;;;;3.10;2.80;;;;;;;;;;5092841;28;20179;-63
2021/04/28 02:24:57;;;;;;;4.07;2.90;;;;;;;;;;5057054;28;20181;-63
2021/04/28 02:27:23;;;;;;;3.47;3.17;;;;;;;;;;5056009;28;20847;-64
2021/04/28 02:29:49;;;;;;;3.20;2.80;;;;;;;;;;5071607;28;20179;-64
2021/04/28 02:32:15;;;;;;;3.53;2.97;;;;;;;;;;5074980;28;20234;-64
2021/04/28 02:34:41;;;;;;;3.00;2.70;;;;;;;;;;5069957;28;20216;-63
2021/04/28 02:37:08;;;;;;;3.30;3.00;;;;;;;;;;5089865;28;20187;-63
2021/04/28 02:39:39;;;;;;;4.67;3.17;;;;;;;;;;5089367;28;20263;-63
2021/04/28 02:42:06;;;;;;;3.10;2.80;;;;;;;;;;5081965;28;20718;-63
2021/04/28 02:44:34;;;;;;;4.07;3.13;;;;;;;;;;5066881;28;20533;-63
2021/04/28 02:47:00;;;;;;;4.53;3.13;;;;;;;;;;5084823;28;20190;-64
2021/04/28 02:49:29;;;;;;;5.23;2.90;;;;;;;;;;5072489;28;20200;-63
2021/04/28 02:51:55;;;;;;;3.30;2.80;;;;;;;;;;5090496;28;20180;-65
2021/04/28 02:54:21;;;;;;;4.60;2.70;;;;;;;;;;5085356;28;20184;-64
2021/04/28 02:56:51;;;;;;;3.20;2.90;;;;;;;;;;5087144;28;20171;-63
2021/04/28 02:59:18;;;;;;;3.17;2.87;;;;;;;;;;5090491;28;20180;-63
2021/04/28 03:01:45;;;;;;;3.30;3.00;;;;;;;;;;5089934;28;20210;-62
2021/04/28 03:04:11;;;;;;;3.27;2.60;;;;;;;;;;5063437;28;20179;-63
2021/04/28 03:06:37;;;;;;;4.13;3.20;;;;;;;;;;5062135;28;20553;-63
2021/04/28 03:09:05;;;;;;;3.10;2.80;;;;;;;;;;5056877;28;20187;-63
2021/04/28 03:11:32;;;;;;;3.60;3.30;;;;;;;;;;5070784;28;20240;-63
2021/04/28 03:13:58;;;;;;;3.53;2.83;;;;;;;;;;5083197;28;20211;-63
2021/04/28 03:16:24;;;;;;;3.50;3.20;;;;;;;;;;5069028;28;20176;-63
2021/04/28 03:18:50;;;;;;;3.40;3.10;;;;;;;;;;5088428;28;20195;-66
2021/04/28 03:21:18;;;;;;;3.23;2.77;;;;;;;;;;5086909;28;20171;-63
2021/04/28 03:23:44;;;;;;;2.80;2.53;;;;;;;;;;5088949;28;20183;-62
2021/04/28 03:26:11;;;;;;;3.20;2.87;;;;;;;;;;5079727;28;20497;-66
2021/04/28 03:28:37;;;;;;;3.70;3.40;;;;;;;;;;5091040;28;20175;-64
2021/04/28 03:31:03;;;;;;;4.50;2.87;;;;;;;;;;5078399;28;20176;-65
2021/04/28 03:33:29;;;;;;;4.03;2.80;;;;;;;;;;5090795;28;20628;-63
2021/04/28 03:35:55;;;;;;;3.53;3.07;;;;;;;;;;5082901;28;20179;-64
2021/04/28 03:38:21;;;;;;;5.77;3.13;;;;;;;;;;5076708;28;20183;-64
2021/04/28 03:40:47;;;;;;;3.50;3.10;;;;;;;;;;5079349;28;20168;-63
2021/04/28 03:43:13;;;;;;;4.37;2.80;;;;;;;;;;5091176;28;20180;-63
2021/04/28 03:45:39;;;;;;;3.13;2.80;;;;;;;;;;5067248;28;20905;-63
2021/04/28 03:48:05;;;;;;;4.30;3.30;;;;;;;;;;5085711;28;20179;-63
2021/04/28 03:50:31;;;;;;;5.30;3.30;;;;;;;;;;5088450;28;20198;-63
2021/04/28 03:52:57;;;;;;;4.03;3.50;;;;;;;;;;5075142;28;20204;-63
2021/04/28 03:55:23;;;;;;;3.50;3.20;;;;;;;;;;5086379;28;20172;-64
2021/04/28 03:57:49;;;;;;;4.17;3.47;;;;;;;;;;5077565;28;20183;-63
2021/04/28 04:00:16;;;;;;;4.30;3.27;;;;;;;;;;5078255;28;20180;-65
2021/04/28 04:02:42;;;;;;;3.70;3.30;;;;;;;;;;5074598;28;20188;-63
2021/04/28 04:05:08;;;;;;;3.60;3.13;;;;;;;;;;5086305;28;20623;-63
2021/04/28 04:07:34;;;;;;;4.18;3.33;;;;;;;;;;5074587;28;20955;-63
2021/04/28 04:10:00;;;;;;;4.00;3.53;;;;;;;;;;5087286;28;20168;-63
2021/04/28 04:12:26;;;;;;;4.97;3.53;;;;;;;;;;5090585;28;20630;-64
2021/04/28 04:14:52;;;;;;;4.20;3.17;;;;;;;;;;5089287;28;20183;-63
2021/04/28 04:17:18;;;;;;;4.10;3.40;;;;;;;;;;5074734;28;20168;-63
2021/04/28 04:19:44;;;;;;;6.27;3.83;;;;;;;;;;5066510;28;20176;-64
2021/04/28 04:22:10;;;;;;;4.90;3.07;;;;;;;;;;5076302;28;20179;-64
2021/04/28 04:24:36;;;;;;;4.17;3.20;;;;;;;;;;5067541;28;20176;-63
2021/04/28 04:27:02;;;;;;;4.87;3.30;;;;;;;;;;5088324;28;20179;-62
2021/04/28 04:29:28;;;;;;;4.37;3.53;;;;;;;;;;5078661;28;20261;-63
2021/04/28 04:31:54;;;;;;;4.23;3.80;;;;;;;;;;5070382;28;20593;-63
2021/04/28 04:34:21;;;;;;;4.17;3.30;;;;;;;;;;5084034;28;20211;-63
2021/04/28 04:36:46;;;;;;;5.00;3.27;;;;;;;;;;5080514;28;20191;-62
2021/04/28 04:39:12;;;;;;;4.50;3.10;;;;;;;;;;5085242;28;20186;-63
2021/04/28 04:41:38;;;;;;;4.77;3.73;;;;;;;;;;5071554;28;20183;-63
2021/04/28 04:44:05;;;;;;;3.67;3.30;;;;;;;;;;5081225;28;20206;-63
2021/04/28 04:46:31;;;;;;;4.07;3.30;;;;;;;;;;5077937;28;20646;-63
2021/04/28 04:48:57;;;;;;;3.60;3.10;;;;;;;;;;5081725;28;20246;-63
2021/04/28 04:51:23;;;;;;;6.60;3.50;;;;;;;;;;5070139;28;20177;-63
2021/04/28 04:53:49;;;;;;;4.50;3.43;;;;;;;;;;5077061;28;20197;-63
2021/04/28 04:56:15;;;;;;;6.77;3.77;;;;;;;;;;5073501;28;20180;-63
2021/04/28 04:58:41;;;;;;;4.03;3.23;;;;;;;;;;5078080;28;20188;-63
2021/04/28 05:01:07;;;;;;;4.67;3.60;;;;;;;;;;5080759;28;20327;-63
2021/04/28 05:03:33;;;;;;;3.90;3.20;;;;;;;;;;5059990;28;20686;-63
2021/04/28 05:05:59;;;;;;;4.47;3.80;;;;;;;;;;5091962;28;20191;-63
2021/04/28 05:08:25;;;;;;;5.07;4.00;;;;;;;;;;5087953;28;20633;-62
2021/04/28 05:10:53;;;;;;;7.07;3.80;;;;;;;;;;5077850;28;20188;-63
2021/04/28 05:13:19;;;;;;;4.93;3.57;;;;;;;;;;5090410;28;20286;-62
2021/04/28 05:15:45;;;;;;;3.93;3.20;;;;;;;;;;5093673;28;20203;-62
2021/04/28 05:18:11;;;;;;;4.70;3.50;;;;;;;;;;5090624;28;20622;-64
2021/04/28 05:20:37;;;;;;;5.60;3.43;;;;;;;;;;5074865;28;20178;-62
2021/04/28 05:23:03;;;;;;;4.50;3.60;;;;;;;;;;5091122;28;20171;-62
2021/04/28 05:25:29;;;;;;;5.97;3.30;;;;;;;;;;5093125;28;20221;-62
2021/04/28 05:27:55;;;;;;;6.17;3.60;;;;;;;;;;5092951;28;20184;-62
2021/04/28 05:30:22;;;;;;;6.27;3.93;;;;;;;;;;5086959;28;20705;-67
2021/04/28 05:32:48;;;;;;;4.00;3.30;;;;;;;;;;5077694;28;20214;-64
2021/04/28 05:35:14;;;;;;;3.80;3.40;;;;;;;;;;5091338;28;20629;-64
2021/04/28 05:37:40;;;;;;;4.30;3.50;;;;;;;;;;5087278;28;20188;-64
2021/04/28 05:40:07;;;;;;;5.60;3.90;;;;;;;;;;5092048;28;20217;-66
2021/04/28 05:42:33;;;;;;;5.53;3.80;;;;;;;;;;5087791;28;20179;-64
2021/04/28 05:44:59;;;;;;;7.10;3.83;;;;;;;;;;5070441;28;20176;-64
2021/04/28 05:47:26;;;;;;;5.43;4.00;;;;;;;;;;5065978;28;20613;-64
2021/04/28 05:49:52;;;;;;;4.60;3.70;;;;;;;;;;5072501;28;20203;-66
2021/04/28 05:52:20;;;;;;;4.17;3.60;;;;;;;;;;5069802;28;20203;-64
2021/04/28 05:54:46;;;;;;;4.37;3.50;;;;;;;;;;5092817;28;20213;-64
2021/04/28 05:57:12;;;;;;;7.23;3.40;;;;;;;;;;5076329;28;20180;-66
2021/04/28 05:59:38;;;;;;;4.23;3.43;;;;;;;;;;5088639;28;20305;-65
2021/04/28 06:02:04;;;;;;;5.13;3.50;;;;;;;;;;5058077;28;20589;-64
2021/04/28 06:04:30;;;;;;;5.63;3.73;;;;;;;;;;5058593;28;20183;-64
2021/04/28 06:06:56;;;;;;;3.90;3.20;;;;;;;;;;5053341;28;20177;-67
2021/04/28 06:09:22;;;;;;;4.37;3.60;;;;;;;;;;5085899;28;20657;-65
2021/04/28 06:11:48;;;;;;;5.53;3.67;;;;;;;;;;5080150;28;20168;-64
2021/04/28 06:14:14;;;;;;;6.60;3.60;;;;;;;;;;5069318;28;20192;-65
2021/04/28 06:16:40;;;;;;;4.30;3.30;;;;;;;;;;5081396;28;20242;-65
2021/04/28 06:19:06;;;;;;;4.83;4.20;;;;;;;;;;5062201;28;20193;-64
2021/04/28 06:21:32;;;;;;;5.97;3.63;;;;;;;;;;5079913;28;20183;-65
2021/04/28 06:24:03;;;;;;;5.13;3.93;;;;;;;;;;5088133;28;20176;-64
2021/04/28 06:26:29;;;;;;;5.57;3.20;;;;;;;;;;5059984;28;20180;-64
2021/04/28 06:28:55;;;;;;;3.93;3.00;;;;;;;;;;5090504;28;20222;-65
2021/04/28 06:31:21;;;;;;;7.63;3.73;;;;;;;;;;5085628;28;20643;-64
2021/04/28 06:33:47;;;;;;;4.47;3.30;;;;;;;;;;5081338;28;20314;-65
2021/04/28 06:36:13;;;;;;;4.40;3.33;;;;;;;;;;5070373;28;20530;-64
2021/04/28 06:38:40;;;;;;;4.80;3.03;;;;;;;;;;5062847;28;20615;-64
2021/04/28 06:41:06;;;;;;;4.23;3.33;;;;;;;;;;5074402;28;20240;-64
2021/04/28 06:43:32;;;;;;;4.10;3.70;;;;;;;;;;5087781;28;20176;-64
2021/04/28 06:45:58;;;;;;;5.70;3.77;;;;;;;;;;5088513;28;20180;-64
2021/04/28 06:48:24;;;;;;;4.43;3.50;;;;;;;;;;5060512;28;20262;-64
2021/04/28 06:50:51;;;;;;;4.63;4.07;;;;;;;;;;5086165;28;20200;-62
2021/04/28 06:53:17;;;;;;;7.67;4.43;;;;;;;;;;5089855;28;20215;-65
2021/04/28 06:55:43;;;;;;;9.00;5.07;;;;;;;;;;5064512;28;20190;-63
2021/04/28 06:58:10;;;;;;;13.60;5.67;;;;;;;;;;5057642;28;20218;-63
2021/04/28 07:00:36;;;;;;;12.27;5.07;;;;;;;;;;5081792;28;20215;-63
2021/04/28 07:03:02;;;;;;;5.87;5.23;;;;;;;;;;5059377;28;20182;-62
2021/04/28 07:05:28;;;;;;;9.60;5.63;;;;;;;;;;5090189;28;20561;-63
2021/04/28 07:07:54;;;;;;;9.83;5.13;;;;;;;;;;5091878;28;20180;-62
2021/04/28 07:10:21;;;;;;;5.90;5.23;;;;;;;;;;5090657;28;20179;-62
2021/04/28 07:12:47;;;;;;;9.43;5.57;;;;;;;;;;5061311;28;20663;-63
2021/04/28 07:15:13;;;;;;;7.80;4.90;;;;;;;;;;5090695;28;20199;-64
2021/04/28 07:17:39;;;;;;;7.60;4.70;;;;;;;;;;5076473;28;20670;-63
2021/04/28 07:20:06;;;;;;;6.63;4.93;;;;;;;;;;5086487;28;20526;-63
2021/04/28 07:22:32;;;;;;;7.63;5.40;;;;;;;;;;5087762;28;20183;-63
2021/04/28 07:24:58;;;;;;;7.67;5.33;;;;;;;;;;5052604;28;20706;-63
2021/04/28 07:27:24;;;;;;;6.10;5.47;;;;;;;;;;5051211;28;20544;-62
2021/04/28 07:29:51;;;;;;;8.97;5.03;;;;;;;;;;5071967;28;20301;-62
2021/04/28 07:32:17;;;;;;;7.80;4.83;;;;;;;;;;5061295;28;20180;-63
2021/04/28 07:34:43;;;;;;;7.13;4.80;;;;;;;;;;5088607;28;20220;-63
2021/04/28 07:37:10;;;;;;;9.50;5.33;;;;;;;;;;5088221;28;20565;-63
2021/04/28 07:39:36;;;;;;;12.17;5.43;;;;;;;;;;5082040;28;20172;-63
2021/04/28 07:42:02;;;;;;;7.67;5.90;;;;;;;;;;5084617;28;20180;-62
2021/04/28 07:44:30;;;;;;;7.43;5.07;;;;;;;;;;5089091;28;20207;-63
2021/04/28 07:46:57;;;;;;;9.43;5.57;;;;;;;;;;5083441;28;20247;-63
2021/04/28 07:49:24;;;;;;;8.67;5.60;;;;;;;;;;5084367;28;20199;-63
2021/04/28 07:51:50;;;;;;;8.87;5.53;;;;;;;;;;5070208;28;20214;-63
2021/04/28 07:54:16;;;;;;;10.20;5.17;;;;;;;;;;5086998;28;20196;-64
2021/04/28 07:56:42;;;;;;;7.97;5.57;;;;;;;;;;5060763;28;20171;-63
2021/04/28 07:59:08;;;;;;;7.77;5.07;;;;;;;;;;5063302;28;20680;-62
2021/04/28 08:01:34;;;;;;;8.33;5.57;;;;;;;;;;5081180;28;20457;-62
2021/04/28 08:04:00;;;;;;;13.13;6.07;;;;;;;;;;5062964;28;20244;-62
2021/04/28 08:06:26;;;;;;;8.37;5.77;;;;;;;;;;5087618;28;20176;-63
2021/04/28 08:08:52;;;;;;;6.40;5.57;;;;;;;;;;5080053;28;20184;-63
2021/04/28 08:11:18;;;;;;;7.20;4.87;;;;;;;;;;5089073;28;20179;-66
2021/04/28 08:13:46;;;;;;;11.37;5.20;;;;;;;;;;5088608;28;20261;-63
2021/04/28 08:16:12;;;;;;;8.03;5.47;;;;;;;;;;5071834;28;20262;-63
2021/04/28 08:18:38;;;;;;;9.83;6.17;;;;;;;;;;5084749;28;20240;-63
2021/04/28 08:21:04;;;;;;;8.90;6.00;;;;;;;;;;5087864;28;20167;-63
2021/04/28 08:23:30;;;;;;;8.27;5.73;;;;;;;;;;5087182;28;20176;-63
2021/04/28 08:25:57;;;;;;;9.53;6.27;;;;;;;;;;5085186;28;20172;-63
2021/04/28 08:28:23;;;;;;;6.53;5.30;;;;;;;;;;5069626;28;20179;-66
2021/04/28 08:30:49;;;;;;;6.93;5.43;;;;;;;;;;5066781;28;20627;-64
2021/04/28 08:33:15;;;;;;;9.13;5.70;;;;;;;;;;5073769;28;20314;-64
2021/04/28 08:35:42;;;;;;;8.63;6.17;;;;;;;;;;5069181;28;20215;-63
2021/04/28 08:38:08;;;;;;;7.93;6.27;;;;;;;;;;5074499;28;20202;-63
2021/04/28 08:40:35;;;;;;;7.83;6.33;;;;;;;;;;5091403;28;20260;-64
2021/04/28 08:43:01;;;;;;;6.23;5.40;;;;;;;;;;5091169;28;20326;-64
2021/04/28 08:45:27;;;;;;;6.53;5.93;;;;;;;;;;5075070;28;20204;-64
2021/04/28 08:47:53;;;;;;;8.27;5.93;;;;;;;;;;5077028;28;20184;-63
2021/04/28 08:50:19;;;;;;;8.70;5.97;;;;;;;;;;5075300;28;20240;-64
2021/04/28 08:52:46;;;;;;;7.83;6.37;;;;;;;;;;5092801;28;20460;-64
2021/04/28 08:55:14;;;;;;;6.27;5.43;;;;;;;;;;5092865;28;20179;-64
2021/04/28 08:57:42;;;;;;;6.17;5.57;;;;;;;;;;5075902;28;20168;-64
2021/04/28 09:00:08;;;;;;;7.63;6.00;;;;;;;;;;5070924;28;20236;-64
2021/04/28 09:02:35;;;;;;;6.20;5.40;;;;;;;;;;5076506;28;20183;-65
2021/04/28 09:05:11;;;;;;;7.90;6.13;;;;;;;;;;5093335;28;20215;-64
2021/04/28 09:07:38;;;;;;;8.00;6.33;;;;;;;;;;5094755;28;20191;-65
2021/04/28 09:10:04;;;;;;;8.50;5.77;;;;;;;;;;5076038;28;20281;-64
2021/04/28 09:12:30;;;;;;;8.83;5.80;;;;;;;;;;5079668;28;20222;-64
2021/04/28 09:14:57;;;;;;;9.63;5.87;;;;;;;;;;5075172;28;20181;-64
2021/04/28 09:17:23;;;;;;;9.03;5.67;;;;;;;;;;5081285;28;20186;-64
2021/04/28 09:19:55;;;;;;;7.73;5.90;;;;;;;;;;5077554;28;20188;-65
2021/04/28 09:22:22;;;;;;;7.53;5.70;;;;;;;;;;5086684;28;20164;-64
2021/04/28 09:24:48;;;;;;;7.23;4.63;;;;;;;;;;5093303;28;20176;-64
2021/04/28 09:27:28;;;;;;;5.63;5.00;;;;;;;;;;5094901;28;20207;-65
2021/04/28 09:29:54;;;;;;;6.67;5.10;;;;;;;;;;5084908;28;20201;-64
2021/04/28 09:32:29;;;;;;;6.50;5.30;;;;;;;;;;5086570;28;20166;-65
2021/04/28 09:35:11;;;;;;;6.60;5.90;;;;;;;;;;5075319;28;20232;-64
2021/04/28 09:37:49;;;;;;;8.23;5.10;;;;;;;;;;5080719;28;20166;-65
2021/04/28 09:40:15;;;;;;;5.60;5.10;;;;;;;;;;5078531;28;20179;-64
2021/04/28 09:42:51;;;;;;;8.50;5.30;;;;;;;;;;5085632;28;20188;-64
2021/04/28 09:45:36;;;;;;;8.40;5.10;;;;;;;;;;5082793;28;20230;-64
2021/04/28 09:48:02;;;;;;;7.13;5.50;;;;;;;;;;5082091;28;20245;-64
2021/04/28 09:50:28;;;;;;;9.43;5.60;;;;;;;;;;5088006;28;20245;-64
2021/04/28 09:52:54;;;;;;;6.77;5.53;;;;;;;;;;5082692;28;20195;-65
2021/04/28 09:55:21;;;;;;;8.40;5.30;;;;;;;;;;5093270;28;20167;-64
2021/04/28 09:57:49;;;;;;;6.00;5.03;;;;;;;;;;5092424;28;20187;-65
2021/04/28 10:00:16;;;;;;;7.43;5.67;;;;;;;;;;5080583;28;20182;-65
2021/04/28 10:02:42;;;;;;;5.90;4.77;;;;;;;;;;5083494;28;20193;-64
2021/04/28 10:05:22;;;;;;;8.73;5.57;;;;;;;;;;5086310;28;20686;-64
2021/04/28 10:07:48;;;;;;;8.20;5.50;;;;;;;;;;5089750;28;20188;-64
2021/04/28 10:10:15;;;;;;;8.57;5.70;;;;;;;;;;5089838;28;20203;-67
2021/04/28 10:12:41;;;;;;;7.53;5.57;;;;;;;;;;5086166;28;20204;-64
2021/04/28 10:15:08;;;;;;;6.80;6.10;;;;;;;;;;5089827;28;20167;-64
2021/04/28 10:17:38;;;;;;;7.23;6.53;;;;;;;;;;5090373;28;20612;-64
2021/04/28 10:20:05;;;;;;;6.87;5.80;;;;;;;;;;5071505;28;20179;-64
2021/04/28 10:22:31;;;;;;;11.13;5.30;;;;;;;;;;5084852;28;20309;-65
2021/04/28 10:24:59;;;;;;;8.57;5.77;;;;;;;;;;5071636;28;20238;-64
2021/04/28 10:27:26;;;;;;;8.17;6.17;;;;;;;;;;5089359;28;20262;-64
2021/04/28 10:29:53;;;;;;;11.43;6.30;;;;;;;;;;5089834;28;20236;-64
2021/04/28 10:32:20;;;;;;;7.87;5.30;;;;;;;;;;5063975;28;20179;-63
2021/04/28 10:35:01;;;;;;;8.73;7.30;;;;;;;;;;5086949;28;20207;-64
2021/04/28 10:37:28;;;;;;;7.70;6.23;;;;;;;;;;5090162;28;20623;-64
2021/04/28 10:39:54;;;;;;;7.03;6.00;;;;;;;;;;5069613;28;20644;-64
2021/04/28 10:42:29;;;;;;;10.03;7.10;;;;;;;;;;5091020;28;20645;-64
2021/04/28 10:44:55;;;;;;;8.53;6.40;;;;;;;;;;5086077;28;20264;-66
2021/04/28 10:47:22;;;;;;;7.63;6.13;;;;;;;;;;5090773;28;20167;-64
2021/04/28 10:50:07;;;;;;;9.57;6.40;;;;;;;;;;5087426;28;20286;-65
2021/04/28 10:52:37;;;;;;;6.63;5.50;;;;;;;;;;5090697;28;20207;-65
2021/04/28 10:55:04;;;;;;;6.50;5.90;;;;;;;;;;5085907;28;20177;-64
2021/04/28 10:57:34;;;;;;;8.53;6.60;;;;;;;;;;5082718;28;20182;-65
2021/04/28 11:00:01;;;;;;;10.37;6.40;;;;;;;;;;5084319;28;20183;-64
2021/04/28 11:02:31;;;;;;;8.60;6.17;;;;;;;;;;5073367;28;20529;-65
2021/04/28 11:05:04;;;;;;;6.83;6.03;;;;;;;;;;5089057;28;20248;-65
2021/04/28 11:07:47;;;;;;;10.53;6.57;;;;;;;;;;5090816;28;20611;-67
2021/04/28 11:10:25;;;;;;;7.33;6.37;;;;;;;;;;5070801;28;20168;-65
2021/04/28 11:13:07;;;;;;;6.30;5.70;;;;;;;;;;5065638;28;20670;-66
2021/04/28 11:15:44;;;;;;;7.27;6.07;;;;;;;;;;5084711;28;20176;-65
2021/04/28 11:18:29;;;;;;;9.83;6.83;;;;;;;;;;5086546;28;20183;-66
2021/04/28 11:21:13;;;;;;;7.97;7.03;;;;;;;;;;5072195;28;20674;-66
2021/04/28 11:23:59;;;;;;;10.10;5.77;;;;;;;;;;5090111;28;20180;-65
2021/04/28 11:26:26;;;;;;;9.40;6.77;;;;;;;;;;5070575;28;20187;-65
2021/04/28 11:28:56;;;;;;;7.03;6.40;;;;;;;;;;5082376;28;20263;-65
2021/04/28 11:31:23;;;;;;;7.43;5.63;;;;;;;;;;5087776;28;20175;-65
2021/04/28 11:33:49;;;;;;;7.47;6.25;;;;;;;;;;5088906;28;20490;-66
2021/04/28 11:36:16;;;;;;;5.93;5.33;;;;;;;;;;5090205;28;20195;-65
2021/04/28 11:38:44;;;;;;;8.13;5.60;;;;;;;;;;5086902;28;20171;-66
2021/04/28 11:41:12;;;;;;;10.97;5.80;;;;;;;;;;5089641;28;20167;-65
2021/04/28 11:43:38;;;;;;;9.03;6.10;;;;;;;;;;5087200;28;20180;-66
2021/04/28 11:46:25;;;;;;;10.03;5.67;;;;;;;;;;5085646;28;20191;-65
2021/04/28 11:48:52;;;;;;;18.97;5.37;;;;;;;;;;5081492;28;20727;-66
2021/04/28 11:51:19;;;;;;;7.00;6.27;;;;;;;;;;5088599;28;20172;-68
2021/04/28 11:53:47;;;;;;;6.97;5.60;;;;;;;;;;5089236;28;20268;-66
2021/04/28 11:56:26;;;;;;;10.47;6.10;;;;;;;;;;5086087;28;20693;-66
2021/04/28 11:58:52;;;;;;;6.63;5.93;;;;;;;;;;5082664;28;20172;-66
2021/04/28 12:01:18;;;;;;;7.73;6.50;;;;;;;;;;5085841;28;20271;-68
2021/04/28 12:04:07;;;;;;;6.60;5.90;;;;;;;;;;5081021;28;20620;-66
2021/04/28 12:06:33;;;;;;;6.00;5.30;;;;;;;;;;5084978;28;20188;-66
2021/04/28 12:09:09;;;;;;;5.97;5.23;;;;;;;;;;5064377;28;20175;-66
2021/04/28 12:11:38;;;;;;;10.03;6.60;;;;;;;;;;5091592;28;20206;-66
2021/04/28 12:14:05;;;;;;;6.60;5.07;;;;;;;;;;5056953;28;20204;-66
2021/04/28 12:16:31;;;;;;;9.90;5.53;;;;;;;;;;5061856;28;20681;-66
2021/04/28 12:19:26;;;;;;;6.70;6.00;;;;;;;;;;5085665;28;20177;-65
2021/04/28 12:22:03;;;;;;;8.83;6.20;;;;;;;;;;5049560;28;20192;-66
2021/04/28 12:24:49;;;;;;;8.03;5.93;;;;;;;;;;5082941;28;20162;-65
2021/04/28 12:27:19;;;;;;;5.87;5.23;;;;;;;;;;5064151;28;20226;-66
2021/04/28 12:29:52;;;;;;;7.90;5.70;;;;;;;;;;5086072;28;20643;-66
2021/04/28 12:32:20;;;;;;;7.67;5.53;;;;;;;;;;5084367;28;20184;-66
2021/04/28 12:34:47;;;;;;;5.70;5.00;;;;;;;;;;5083817;28;20221;-67
2021/04/28 12:37:16;;;;;;;5.97;4.40;;;;;;;;;;5056449;28;20180;-65
2021/04/28 12:39:47;;;;;;;4.97;4.40;;;;;;;;;;5062257;28;20188;-66
2021/04/28 12:42:13;;;;;;;4.77;3.90;;;;;;;;;;5086171;28;20168;-66
2021/04/28 12:44:39;;;;;;;4.20;3.80;;;;;;;;;;5085854;28;20233;-64
2021/04/28 12:47:05;;;;;;;4.37;3.67;;;;;;;;;;5059751;28;20187;-65
2021/04/28 12:49:31;;;;;;;6.53;3.30;;;;;;;;;;5064494;28;20192;-65
2021/04/28 12:52:00;;;;;;;5.30;3.13;;;;;;;;;;5065570;28;20340;-66
2021/04/28 12:54:26;;;;;;;3.43;2.70;;;;;;;;;;5088857;28;20223;-65
2021/04/28 12:56:53;;;;;;;4.33;3.17;;;;;;;;;;5087222;28;20181;-65
2021/04/28 12:59:21;;;;;;;3.23;2.93;;;;;;;;;;5087837;28;20250;-65
2021/04/28 13:02:00;;;;;;;3.50;3.03;;;;;;;;;;5086979;28;20836;-65
2021/04/28 13:04:27;;;;;;;3.30;2.93;;;;;;;;;;5087718;28;20236;-67
2021/04/28 13:07:09;;;;;;;3.73;3.00;;;;;;;;;;5068450;28;20195;-65
2021/04/28 13:09:35;;;;;;;3.27;2.97;;;;;;;;;;5068989;28;20699;-65
2021/04/28 13:12:01;;;;;;;3.80;2.67;;;;;;;;;;5086586;28;20216;-65
2021/04/28 13:14:45;;;;;;;4.30;2.93;;;;;;;;;;5083678;28;20505;-66
2021/04/28 13:17:11;;;;;;;2.60;2.40;;;;;;;;;;5087000;28;20161;-65
2021/04/28 13:19:40;;;;;;;3.10;2.80;;;;;;;;;;5087463;28;20231;-64
2021/04/28 13:22:14;;;;;;;2.40;2.20;;;;;;;;;;5086766;28;20164;-64
2021/04/28 13:24:40;;;;;;;2.70;2.50;;;;;;;;;;5066904;28;20647;-64
2021/04/28 13:27:17;;;;;;;3.07;2.50;;;;;;;;;;5068727;28;20184;-65
2021/04/28 13:29:56;;;;;;;3.60;2.60;;;;;;;;;;5092321;28;20186;-65
2021/04/28 13:32:32;;;;;;;2.77;2.40;;;;;;;;;;5091960;28;20171;-64
2021/04/28 13:35:10;;;;;;;2.67;2.47;;;;;;;;;;5090084;28;20556;-65
2021/04/28 13:37:36;;;;;;;2.67;2.47;;;;;;;;;;5066924;28;20531;-64
2021/04/28 13:40:32;;;;;;;3.23;2.23;;;;;;;;;;5090514;28;20188;-64
2021/04/28 13:43:00;;;;;;;2.80;2.50;;;;;;;;;;5056247;28;20204;-64
2021/04/28 13:45:26;;;;;;;2.77;2.57;;;;;;;;;;5089157;28;20184;-64
2021/04/28 13:47:52;;;;;;;3.90;2.73;;;;;;;;;;5072924;28;20225;-64
2021/04/28 13:50:19;;;;;;;3.50;2.70;;;;;;;;;;5067974;28;20300;-66
2021/04/28 13:52:46;;;;;;;5.57;2.60;;;;;;;;;;5072750;28;20256;-63
2021/04/28 13:55:12;;;;;;;2.90;2.50;;;;;;;;;;5086396;28;20176;-64
2021/04/28 13:57:38;;;;;;;2.73;2.47;;;;;;;;;;5091235;28;20174;-64
2021/04/28 14:00:05;;;;;;;4.23;2.20;;;;;;;;;;5087349;28;20190;-64
2021/04/28 14:02:31;;;;;;;2.53;2.33;;;;;;;;;;5091074;28;20171;-63
2021/04/28 14:04:57;;;;;;;2.97;2.67;;;;;;;;;;5089775;28;20183;-65
2021/04/28 14:07:23;;;;;;;7.10;2.67;;;;;;;;;;5092068;28;20521;-64
2021/04/28 14:09:49;;;;;;;7.93;2.67;;;;;;;;;;5087276;28;20202;-65
2021/04/28 14:12:16;;;;;;;6.30;3.23;;;;;;;;;;5091046;28;20167;-63
2021/04/28 14:14:42;;;;;;;3.70;2.07;;;;;;;;;;5089774;28;20231;-63
2021/04/28 14:17:08;;;;;;;4.70;2.57;;;;;;;;;;5090963;28;20284;-64
2021/04/28 14:19:34;;;;;;;4.67;2.63;;;;;;;;;;5071998;28;20187;-63
2021/04/28 14:22:01;;;;;;;4.30;2.23;;;;;;;;;;5084099;28;20293;-64
2021/04/28 14:24:27;;;;;;;2.50;2.20;;;;;;;;;;5086570;28;20219;-64
2021/04/28 14:26:53;;;;;;;2.77;2.40;;;;;;;;;;5091029;28;20305;-64
2021/04/28 14:29:20;;;;;;;2.93;2.47;;;;;;;;;;5091814;28;20638;-65
2021/04/28 14:31:46;;;;;;;2.50;2.30;;;;;;;;;;5073842;28;20176;-64
2021/04/28 14:34:12;;;;;;;2.57;2.37;;;;;;;;;;5090190;28;20796;-63
2021/04/28 14:36:40;;;;;;;2.67;2.40;;;;;;;;;;5087811;28;20183;-65
2021/04/28 14:39:06;;;;;;;3.23;2.93;;;;;;;;;;5088206;28;20577;-63
2021/04/28 14:41:32;;;;;;;3.27;2.73;;;;;;;;;;5073260;28;20229;-63
2021/04/28 14:43:58;;;;;;;2.97;2.67;;;;;;;;;;5074395;28;20603;-63
2021/04/28 14:46:24;;;;;;;4.00;2.80;;;;;;;;;;5068795;28;20500;-64